LVJWL SADF-SADF
Flight info
| Callsign | LVJWL |
|---|---|
| Flight time | 0h 29m |
| Altitude | 1000 |
| Route | LOCAL |
| Aircraft | P06T/L-SBDGRY/S |
Departure
| Time | 2026-04-11 19:43 |
|---|---|
| Airport | San Fernando Airport (SADF) |
Arrival
| Time | 2026-04-11 20:12 |
|---|---|
| Airport | San Fernando Airport (SADF) |
| Time | Latitude | Longitude | Altitude | Speed | Heading |
|---|---|---|---|---|---|
| 2026-04-11 19:30 | -34.45850 | -58.59067 | 20 ft | 0 kts | 333° |
| 2026-04-11 19:39 | -34.45834 | -58.59067 | 20 ft | 6 kts | 359° |
| 2026-04-11 19:39 | -34.45811 | -58.59080 | 20 ft | 8 kts | 316° |
| 2026-04-11 19:40 | -34.45827 | -58.59133 | 20 ft | 9 kts | 243° |
| 2026-04-11 19:40 | -34.45866 | -58.59223 | 20 ft | 15 kts | 242° |
| 2026-04-11 19:40 | -34.45921 | -58.59349 | 20 ft | 19 kts | 242° |
| 2026-04-11 19:40 | -34.45964 | -58.59450 | 20 ft | 21 kts | 242° |
| 2026-04-11 19:41 | -34.46030 | -58.59605 | 20 ft | 17 kts | 252° |
| 2026-04-11 19:41 | -34.45989 | -58.59685 | 20 ft | 18 kts | 337° |
| 2026-04-11 19:41 | -34.45947 | -58.59666 | 20 ft | 0 kts | 42° |
| 2026-04-11 19:41 | -34.45884 | -58.59591 | 20 ft | 44 kts | 44° |
| 2026-04-11 19:42 | -34.45670 | -58.59340 | 26 ft | 78 kts | 44° |
| 2026-04-11 19:42 | -34.45202 | -58.58796 | 95 ft | 104 kts | 45° |
| 2026-04-11 19:42 | -34.44671 | -58.58174 | 286 ft | 109 kts | 46° |
| 2026-04-11 19:42 | -34.44097 | -58.57573 | 551 ft | 109 kts | 32° |
| 2026-04-11 19:43 | -34.43332 | -58.57456 | 737 ft | 115 kts | 351° |
| 2026-04-11 19:43 | -34.42565 | -58.57749 | 967 ft | 117 kts | 342° |
| 2026-04-11 19:43 | -34.41745 | -58.58075 | 979 ft | 131 kts | 346° |
| 2026-04-11 19:43 | -34.40905 | -58.58542 | 987 ft | 135 kts | 326° |
| 2026-04-11 19:44 | -34.40253 | -58.59359 | 984 ft | 134 kts | 314° |
| 2026-04-11 19:44 | -34.39614 | -58.60194 | 988 ft | 136 kts | 315° |
| 2026-04-11 19:44 | -34.38998 | -58.61062 | 989 ft | 135 kts | 314° |
| 2026-04-11 19:44 | -34.38376 | -58.61924 | 994 ft | 137 kts | 314° |
| 2026-04-11 19:45 | -34.37761 | -58.62811 | 990 ft | 136 kts | 313° |
| 2026-04-11 19:45 | -34.37164 | -58.63669 | 994 ft | 132 kts | 313° |
| 2026-04-11 19:45 | -34.36579 | -58.64512 | 992 ft | 130 kts | 314° |
| 2026-04-11 19:45 | -34.35992 | -58.65352 | 992 ft | 131 kts | 313° |
| 2026-04-11 19:46 | -34.35405 | -58.66178 | 993 ft | 129 kts | 316° |
| 2026-04-11 19:46 | -34.34723 | -58.66885 | 983 ft | 129 kts | 328° |
| 2026-04-11 19:46 | -34.34015 | -58.67553 | 991 ft | 128 kts | 325° |
| 2026-04-11 19:46 | -34.33322 | -58.68223 | 998 ft | 127 kts | 326° |
| 2026-04-11 19:47 | -34.32622 | -58.68878 | 993 ft | 129 kts | 326° |
| 2026-04-11 19:47 | -34.31891 | -58.69523 | 996 ft | 131 kts | 328° |
| 2026-04-11 19:47 | -34.31145 | -58.70156 | 992 ft | 129 kts | 336° |
| 2026-04-11 19:47 | -34.30297 | -58.70320 | 992 ft | 122 kts | 1° |
| 2026-04-11 19:48 | -34.29448 | -58.70405 | 988 ft | 123 kts | 358° |
| 2026-04-11 19:48 | -34.28606 | -58.70495 | 989 ft | 119 kts | 357° |
| 2026-04-11 19:48 | -34.27793 | -58.70597 | 1000 ft | 117 kts | 357° |
| 2026-04-11 19:48 | -34.26974 | -58.70679 | 1003 ft | 122 kts | 357° |
| 2026-04-11 19:49 | -34.26228 | -58.71135 | 993 ft | 126 kts | 313° |
| 2026-04-11 19:49 | -34.26036 | -58.72146 | 981 ft | 128 kts | 263° |
| 2026-04-11 19:49 | -34.26537 | -58.72995 | 988 ft | 129 kts | 212° |
| 2026-04-11 19:49 | -34.27383 | -58.73121 | 979 ft | 120 kts | 160° |
| 2026-04-11 19:50 | -34.28056 | -58.72600 | 996 ft | 114 kts | 138° |
| 2026-04-11 19:50 | -34.28702 | -58.72024 | 1002 ft | 117 kts | 139° |
| 2026-04-11 19:50 | -34.29374 | -58.71443 | 1008 ft | 121 kts | 138° |
| 2026-04-11 19:50 | -34.30053 | -58.70822 | 1010 ft | 123 kts | 137° |
| 2026-04-11 19:51 | -34.30737 | -58.70204 | 1008 ft | 122 kts | 139° |
| 2026-04-11 19:51 | -34.31434 | -58.69622 | 1010 ft | 121 kts | 139° |
| 2026-04-11 19:51 | -34.32105 | -58.69018 | 1008 ft | 120 kts | 139° |
| 2026-04-11 19:51 | -34.32777 | -58.68413 | 999 ft | 121 kts | 138° |
| 2026-04-11 19:52 | -34.33470 | -58.67845 | 995 ft | 120 kts | 142° |
| 2026-04-11 19:52 | -34.34156 | -58.67298 | 1000 ft | 120 kts | 141° |
| 2026-04-11 19:52 | -34.34851 | -58.66726 | 997 ft | 121 kts | 140° |
| 2026-04-11 19:52 | -34.35560 | -58.66142 | 1002 ft | 123 kts | 141° |
| 2026-04-11 19:53 | -34.36262 | -58.65565 | 997 ft | 124 kts | 140° |
| 2026-04-11 19:53 | -34.36975 | -58.64992 | 995 ft | 121 kts | 141° |
| 2026-04-11 19:53 | -34.37663 | -58.64417 | 997 ft | 119 kts | 141° |
| 2026-04-11 19:53 | -34.38351 | -58.63845 | 998 ft | 122 kts | 140° |
| 2026-04-11 19:54 | -34.39053 | -58.63266 | 993 ft | 122 kts | 141° |
| 2026-04-11 19:54 | -34.39747 | -58.62692 | 992 ft | 120 kts | 141° |
| 2026-04-11 19:54 | -34.40438 | -58.62126 | 998 ft | 120 kts | 141° |
| 2026-04-11 19:54 | -34.41132 | -58.61563 | 998 ft | 119 kts | 141° |
| 2026-04-11 19:55 | -34.41827 | -58.61003 | 996 ft | 121 kts | 142° |
| 2026-04-11 19:55 | -34.42551 | -58.60469 | 997 ft | 124 kts | 154° |
| 2026-04-11 19:55 | -34.43410 | -58.60469 | 1003 ft | 127 kts | 202° |
| 2026-04-11 19:55 | -34.44093 | -58.61086 | 1112 ft | 119 kts | 219° |
| 2026-04-11 19:56 | -34.44797 | -58.61579 | 1199 ft | 118 kts | 206° |
| 2026-04-11 19:56 | -34.45467 | -58.62116 | 1311 ft | 115 kts | 231° |
| 2026-04-11 19:56 | -34.45932 | -58.62895 | 1439 ft | 114 kts | 235° |
| 2026-04-11 19:56 | -34.46383 | -58.63690 | 1561 ft | 115 kts | 238° |
| 2026-04-11 19:57 | -34.46849 | -58.64473 | 1694 ft | 115 kts | 233° |
| 2026-04-11 19:57 | -34.47336 | -58.65264 | 1821 ft | 119 kts | 234° |
| 2026-04-11 19:57 | -34.47840 | -58.66054 | 1952 ft | 118 kts | 232° |
| 2026-04-11 19:57 | -34.48353 | -58.66844 | 2132 ft | 124 kts | 232° |
| 2026-04-11 19:58 | -34.48904 | -58.67697 | 2318 ft | 132 kts | 232° |
| 2026-04-11 19:58 | -34.49469 | -58.68567 | 2497 ft | 134 kts | 232° |
| 2026-04-11 19:58 | -34.50042 | -58.69452 | 2693 ft | 133 kts | 232° |
| 2026-04-11 19:58 | -34.50609 | -58.70320 | 2945 ft | 130 kts | 232° |
| 2026-04-11 19:59 | -34.51197 | -58.71220 | 2996 ft | 143 kts | 232° |
| 2026-04-11 19:59 | -34.51829 | -58.72198 | 3005 ft | 151 kts | 232° |
| 2026-04-11 19:59 | -34.52479 | -58.73196 | 3003 ft | 150 kts | 232° |
| 2026-04-11 19:59 | -34.53179 | -58.74108 | 3000 ft | 147 kts | 212° |
| 2026-04-11 20:00 | -34.54128 | -58.74528 | 2998 ft | 145 kts | 197° |
| 2026-04-11 20:00 | -34.55100 | -58.74609 | 2982 ft | 139 kts | 158° |
| 2026-04-11 20:00 | -34.55769 | -58.73864 | 2773 ft | 132 kts | 109° |
| 2026-04-11 20:00 | -34.55847 | -58.72792 | 2526 ft | 123 kts | 84° |
| 2026-04-11 20:01 | -34.55832 | -58.71799 | 2495 ft | 112 kts | 83° |
| 2026-04-11 20:01 | -34.55571 | -58.70959 | 2488 ft | 104 kts | 55° |
| 2026-04-11 20:01 | -34.55068 | -58.70314 | 2397 ft | 107 kts | 40° |
| 2026-04-11 20:01 | -34.54526 | -58.69720 | 2268 ft | 102 kts | 44° |
| 2026-04-11 20:02 | -34.54025 | -58.69148 | 2113 ft | 100 kts | 44° |
| 2026-04-11 20:02 | -34.53519 | -58.68561 | 2000 ft | 101 kts | 43° |
| 2026-04-11 20:02 | -34.53010 | -58.67974 | 1959 ft | 104 kts | 43° |
| 2026-04-11 20:02 | -34.52469 | -58.67352 | 1815 ft | 109 kts | 44° |
| 2026-04-11 20:03 | -34.51919 | -58.66705 | 1673 ft | 111 kts | 43° |
| 2026-04-11 20:03 | -34.51366 | -58.66043 | 1516 ft | 110 kts | 44° |
| 2026-04-11 20:03 | -34.50842 | -58.65429 | 1373 ft | 98 kts | 44° |
| 2026-04-11 20:03 | -34.50378 | -58.64885 | 1259 ft | 90 kts | 44° |
| 2026-04-11 20:04 | -34.49905 | -58.64329 | 1124 ft | 99 kts | 43° |
| 2026-04-11 20:04 | -34.49444 | -58.63783 | 1017 ft | 93 kts | 45° |
| 2026-04-11 20:04 | -34.49007 | -58.63267 | 888 ft | 82 kts | 45° |
| 2026-04-11 20:04 | -34.48617 | -58.62808 | 783 ft | 75 kts | 43° |
| 2026-04-11 20:05 | -34.48240 | -58.62364 | 683 ft | 79 kts | 45° |
| 2026-04-11 20:05 | -34.47828 | -58.61880 | 572 ft | 84 kts | 46° |
| 2026-04-11 20:05 | -34.47418 | -58.61393 | 465 ft | 83 kts | 44° |
| 2026-04-11 20:05 | -34.47000 | -58.60903 | 342 ft | 85 kts | 45° |
| 2026-04-11 20:06 | -34.46582 | -58.60411 | 228 ft | 82 kts | 46° |
| 2026-04-11 20:06 | -34.46175 | -58.59937 | 126 ft | 80 kts | 45° |
| 2026-04-11 20:06 | -34.45781 | -58.59472 | 34 ft | 76 kts | 43° |
| 2026-04-11 20:06 | -34.45431 | -58.59061 | 29 ft | 73 kts | 44° |
| 2026-04-11 20:07 | -34.44991 | -58.58548 | 143 ft | 97 kts | 44° |
| 2026-04-11 20:07 | -34.44488 | -58.57957 | 365 ft | 103 kts | 47° |
| 2026-04-11 20:07 | -34.43979 | -58.57323 | 561 ft | 105 kts | 43° |
| 2026-04-11 20:07 | -34.43287 | -58.57103 | 845 ft | 109 kts | 358° |
| 2026-04-11 20:08 | -34.42550 | -58.57376 | 1026 ft | 122 kts | 321° |
| 2026-04-11 20:08 | -34.42202 | -58.58310 | 1201 ft | 123 kts | 272° |
| 2026-04-11 20:08 | -34.42545 | -58.59241 | 1221 ft | 129 kts | 222° |
| 2026-04-11 20:08 | -34.43232 | -58.59968 | 1153 ft | 127 kts | 215° |
| 2026-04-11 20:09 | -34.43945 | -58.60521 | 1144 ft | 121 kts | 208° |
| 2026-04-11 20:09 | -34.44721 | -58.61055 | 1074 ft | 134 kts | 205° |
| 2026-04-11 20:09 | -34.45532 | -58.61564 | 1107 ft | 123 kts | 205° |
| 2026-04-11 20:09 | -34.46238 | -58.62029 | 1113 ft | 112 kts | 207° |
| 2026-04-11 20:10 | -34.46924 | -58.62332 | 946 ft | 99 kts | 172° |
| 2026-04-11 20:10 | -34.47509 | -58.61337 | 700 ft | 57 kts | 13° |
| 2026-04-11 20:11 | -34.47173 | -58.61115 | 570 ft | 55 kts | 49° |
| 2026-04-11 20:11 | -34.46868 | -58.60773 | 451 ft | 68 kts | 45° |
| 2026-04-11 20:11 | -34.46523 | -58.60362 | 328 ft | 68 kts | 50° |
| 2026-04-11 20:11 | -34.46211 | -58.59979 | 163 ft | 62 kts | 43° |
| 2026-04-11 20:12 | -34.45909 | -58.59625 | 43 ft | 60 kts | 43° |
| 2026-04-11 20:12 | -34.45618 | -58.59280 | 22 ft | 54 kts | 44° |
| 2026-04-11 20:12 | -34.45399 | -58.59021 | 20 ft | 36 kts | 45° |
| 2026-04-11 20:12 | -34.45236 | -58.58828 | 20 ft | 31 kts | 44° |
| 2026-04-11 20:13 | -34.45085 | -58.58652 | 20 ft | 29 kts | 44° |
| 2026-04-11 20:13 | -34.44946 | -58.58488 | 20 ft | 27 kts | 45° |
| 2026-04-11 20:13 | -34.44853 | -58.58359 | 20 ft | 8 kts | 86° |
| 2026-04-11 20:13 | -34.44890 | -58.58290 | 20 ft | 15 kts | 140° |
| 2026-04-11 20:14 | -34.45017 | -58.58194 | 20 ft | 16 kts | 149° |
| 2026-04-11 20:14 | -34.45118 | -58.58120 | 20 ft | 18 kts | 149° |
| 2026-04-11 20:14 | -34.45232 | -58.58040 | 20 ft | 20 kts | 149° |
| 2026-04-11 20:14 | -34.45318 | -58.57980 | 20 ft | 11 kts | 168° |
| 2026-04-11 20:15 | -34.45355 | -58.58033 | 20 ft | 14 kts | 243° |
| 2026-04-11 20:15 | -34.45415 | -58.58172 | 20 ft | 21 kts | 241° |
| 2026-04-11 20:15 | -34.45487 | -58.58338 | 20 ft | 24 kts | 242° |
| 2026-04-11 20:15 | -34.45557 | -58.58503 | 20 ft | 9 kts | 243° |
| 2026-04-11 20:16 | -34.45595 | -58.58591 | 20 ft | 14 kts | 241° |
| 2026-04-11 20:16 | -34.45648 | -58.58714 | 20 ft | 18 kts | 245° |
| 2026-04-11 20:16 | -34.45675 | -58.58777 | 20 ft | 9 kts | 242° |
| 2026-04-11 20:16 | -34.45709 | -58.58859 | 20 ft | 13 kts | 243° |
| 2026-04-11 20:17 | -34.45760 | -58.58975 | 20 ft | 16 kts | 242° |
| 2026-04-11 20:17 | -34.45786 | -58.59037 | 20 ft | 10 kts | 243° |
| 2026-04-11 20:17 | -34.45807 | -58.59078 | 20 ft | 6 kts | 198° |
| 2026-04-11 20:17 | -34.45839 | -58.59062 | 20 ft | 2 kts | 168° |
| 2026-04-11 20:18 | -34.45850 | -58.59076 | 20 ft | 0 kts | 242° |